CEP2 weather

Calgary (Bow Crow) Heliport
Calgary, Alberta, Canada

Public forecast

Using degrees Celsius for public forecast. Weather courtesy of forecast.io.

METAR (pilot weather report)

Closest report is Calgary / Springbank Airport, 6.0 nm (11.1 km) W. Retrieved 2019/06/25 08:00 UTC (52 minutes ago):

CYBW 250800Z AUTO 35003KT 300V060 9SM FEW047 OVC060 10/06 A2987 RMK SLP119 DENSITY ALT 4200FT

TAF (pilot weather forecast)

Forecast is more than 12 hours old.

Closest forecast is Calgary / Springbank Airport, 6.0 nm (11.1 km) W. Retrieved 2019/06/24 00:00 UTC (1 day ago):

TAF CYBW 242342Z 2500/2504 VRB03KT P6SM SCT070 TEMPO 2500/2502 P6SM -SHRA VCTS SCT040CB BKN050 FM250200 34006KT P6SM SCT040 RMK FCST BASED ON AUTO OBS. NXT FCST WILL BE ISSUED AT 251145Z